Terminal Aerodrome Forecast
Issued by NWS Norman, OK

Home | Current Version | Previous Version | Text Only | Print | Product List | Glossary On
Versions: 1 2 3 4 5 6 7 8 9 10 11 12 13 14 15 16 17 18 19 20 21 22 23 24 25 26 27 28 29
000
FTUS44 KOUN 272328
TAFOKC
TAF
KOKC 272328Z 2800/2824 16015G22KT P6SM BKN050 BKN100
     FM280500 17008KT P6SM SCT100
     FM281200 24009KT 6SM BR OVC015
     FM281800 36006KT P6SM OVC025
     FM282100 11008KT P6SM OVC050=

USA.gov is the U.S. government's official web portal to all federal, state and local government web resources and services.